Time;durP1;ratioP1;P1;durP2;ratioP2;P2;SDS_P1;SDS_P2;PMS_P1;PMS_P2;Temp;Humidity;BMP_temperature;BMP_pressure;BME280_temperature;BME280_humidity;BME280_pressure;Samples;Min_cycle;Max_cycle;Signal;HPM_P1;HPM_P2
2022/04/10 00:01:20;;;;;;;0.20;0.20;;;5.50;99.90;;;5.85;74.45;100869.00;5057300;28;20200;-69
2022/04/10 00:03:47;;;;;;;0.20;0.20;;;5.60;99.90;;;5.82;75.03;100870.84;5068742;28;20711;-71
2022/04/10 00:06:14;;;;;;;0.20;0.20;;;5.60;99.90;;;5.87;74.61;100877.53;5061131;28;20208;-69
2022/04/10 00:08:41;;;;;;;0.20;0.20;;;5.60;99.90;;;5.84;74.40;100875.09;5087042;23;20241;-71
2022/04/10 00:11:10;;;;;;;0.30;0.30;;;5.60;99.90;;;5.84;74.65;100876.84;4966604;28;20637;-71
2022/04/10 00:13:38;;;;;;;0.20;0.20;;;5.60;99.90;;;5.77;74.88;100875.44;4981770;28;20638;-71
2022/04/10 00:16:05;;;;;;;0.20;0.20;;;5.50;99.90;;;5.79;75.01;100877.00;4975820;28;20301;-71
2022/04/10 00:18:32;;;;;;;0.73;0.73;;;5.50;99.90;;;5.85;74.59;100874.19;5019497;28;20222;-72
2022/04/10 00:20:59;;;;;;;0.20;0.20;;;5.60;99.90;;;5.81;74.95;100876.97;4997461;28;20195;-71
2022/04/10 00:23:27;;;;;;;0.20;0.20;;;5.50;99.90;;;5.77;74.93;100873.66;5011066;28;20411;-68
2022/04/10 00:25:54;;;;;;;0.20;0.20;;;5.60;99.90;;;5.77;75.27;100883.22;4988389;28;20614;-71
2022/04/10 00:28:21;;;;;;;0.20;0.20;;;5.50;99.90;;;5.69;75.37;100877.53;5002880;28;20257;-71
2022/04/10 00:30:48;;;;;;;0.20;0.20;;;5.40;99.90;;;5.62;75.32;100879.59;4995616;28;20582;-71
2022/04/10 00:33:15;;;;;;;0.20;0.20;;;5.30;99.90;;;5.65;75.67;100881.19;5006042;28;20579;-71
2022/04/10 00:35:42;;;;;;;0.20;0.20;;;5.40;99.90;;;5.50;76.06;100875.84;4998170;28;20747;-70
2022/04/10 00:38:09;;;;;;;0.20;0.20;;;5.30;99.90;;;5.58;75.99;100875.47;5019170;28;20635;-71
2022/04/10 00:40:36;;;;;;;0.20;0.20;;;5.20;99.90;;;5.51;76.17;100877.50;5023430;28;20277;-71
2022/04/10 00:43:03;;;;;;;0.20;0.20;;;5.20;99.90;;;5.42;75.90;100867.59;4979846;28;20952;-71
2022/04/10 00:45:30;;;;;;;0.20;0.20;;;5.20;99.90;;;5.38;76.46;100868.66;5021399;28;20253;-68
2022/04/10 00:47:57;;;;;;;0.20;0.20;;;5.20;99.90;;;5.42;76.31;100877.09;5013619;28;20280;-71
2022/04/10 00:50:25;;;;;;;0.20;0.20;;;5.10;99.90;;;5.43;76.34;100864.09;4992404;28;20209;-71
2022/04/10 00:52:52;;;;;;;0.20;0.20;;;5.10;99.90;;;5.37;76.68;100879.06;4995853;28;20212;-70
2022/04/10 00:55:19;;;;;;;0.20;0.20;;;5.10;99.90;;;5.43;76.09;100874.44;4987869;28;20227;-71
2022/04/10 00:57:47;;;;;;;0.43;0.43;;;5.10;99.90;;;5.36;76.49;100874.81;4994770;28;20223;-71
2022/04/10 01:00:15;;;;;;;0.20;0.20;;;5.10;99.90;;;5.24;76.68;100876.19;4986209;28;20203;-71
2022/04/10 01:02:42;;;;;;;0.20;0.20;;;5.10;99.90;;;5.33;76.75;100877.53;5013403;28;20206;-69
2022/04/10 01:05:10;;;;;;;0.20;0.20;;;5.00;99.90;;;5.29;76.56;100876.00;4988902;28;20203;-71
2022/04/10 01:07:37;;;;;;;0.20;0.20;;;5.00;99.90;;;5.37;76.41;100879.91;4993662;28;20223;-71
2022/04/10 01:10:08;;;;;;;0.20;0.20;;;5.10;99.90;;;5.36;76.39;100874.81;4994669;28;20219;-71
2022/04/10 01:12:35;;;;;;;0.20;0.20;;;5.00;99.90;;;5.29;76.50;100878.59;4994062;28;20212;-72
2022/04/10 01:15:04;;;;;;;0.20;0.20;;;5.00;99.90;;;5.03;77.30;100884.94;4988802;28;20196;-71
2022/04/10 01:17:31;;;;;;;0.68;0.68;;;5.00;99.90;;;5.01;77.67;100876.41;5009824;28;20195;-71
2022/04/10 01:19:59;;;;;;;0.20;0.20;;;4.90;99.90;;;4.79;78.83;100875.72;4996638;28;20206;-71
2022/04/10 01:22:35;;;;;;;0.20;0.20;;;4.70;99.90;;;4.89;78.17;100874.38;5010298;28;20223;-70
2022/04/10 01:25:08;;;;;;;0.20;0.20;;;4.70;99.90;;;4.85;78.72;100872.00;5001252;28;20203;-72
2022/04/10 01:27:39;;;;;;;2.85;2.05;;;4.70;99.90;;;4.86;78.74;100881.41;4993111;28;20218;-72
2022/04/10 01:30:09;;;;;;;0.20;0.20;;;4.60;99.90;;;4.96;78.44;100887.88;4995091;28;20673;-72
2022/04/10 01:32:36;;;;;;;0.20;0.20;;;4.70;99.90;;;4.94;78.52;100885.34;4994568;28;20226;-71
2022/04/10 01:35:06;;;;;;;0.20;0.20;;;4.70;99.90;;;4.94;78.16;100887.94;5012597;28;20217;-72
2022/04/10 01:37:36;;;;;;;0.20;0.20;;;4.70;99.90;;;4.95;78.00;100887.03;4993005;28;20223;-71
2022/04/10 01:40:04;;;;;;;0.20;0.20;;;4.70;99.90;;;4.93;78.15;100886.28;4994581;28;20215;-72
2022/04/10 01:42:32;;;;;;;0.20;0.20;;;4.70;99.90;;;4.87;77.93;100888.28;5010376;28;20198;-71
2022/04/10 01:44:58;;;;;;;0.20;0.20;;;4.70;99.90;;;5.00;77.74;100889.44;4980674;28;20212;-72
2022/04/10 01:47:25;;;;;;;0.20;0.20;;;4.80;99.90;;;4.92;77.89;100883.75;5006863;28;20202;-71
2022/04/10 01:49:52;;;;;;;0.20;0.20;;;4.70;99.90;;;4.91;77.94;100889.81;4998743;28;20203;-72
2022/04/10 01:52:19;;;;;;;0.20;0.20;;;4.70;99.90;;;4.98;77.71;100893.81;5027850;28;20252;-72
2022/04/10 01:54:46;;;;;;;0.20;0.20;;;4.80;99.90;;;4.87;77.50;100889.13;5013762;28;20226;-72
2022/04/10 01:57:13;;;;;;;0.20;0.20;;;4.60;99.90;;;4.89;77.82;100897.66;5000036;28;20308;-71
2022/04/10 01:59:40;;;;;;;0.20;0.20;;;4.70;99.90;;;4.70;78.60;100892.47;5000948;28;20312;-69
2022/04/10 02:02:07;;;;;;;0.20;0.20;;;4.60;99.90;;;4.49;79.69;100898.53;4995455;28;20205;-72
2022/04/10 02:04:35;;;;;;;0.20;0.20;;;4.50;99.90;;;4.60;79.33;100898.91;4992475;28;20198;-72
2022/04/10 02:07:02;;;;;;;0.20;0.20;;;4.40;99.90;;;4.67;78.91;100889.16;5006835;28;20345;-71
2022/04/10 02:09:29;;;;;;;0.60;0.60;;;4.50;99.90;;;4.72;78.09;100890.66;5005799;28;20230;-71
2022/04/10 02:11:55;;;;;;;0.20;0.20;;;4.50;99.90;;;4.71;78.34;100888.97;5011784;28;20290;-71
2022/04/10 02:14:22;;;;;;;0.20;0.20;;;4.50;99.90;;;4.66;78.23;100888.31;5003878;28;20282;-72
2022/04/10 02:16:49;;;;;;;0.20;0.20;;;4.40;99.90;;;4.54;78.70;100895.75;5009620;28;20236;-72
2022/04/10 02:19:16;;;;;;;0.20;0.20;;;4.30;99.90;;;4.40;78.88;100900.69;5017566;28;20250;-71
2022/04/10 02:21:44;;;;;;;0.20;0.20;;;4.30;99.90;;;4.30;80.37;100897.63;5021776;28;20694;-72
2022/04/10 02:24:13;;;;;;;0.20;0.20;;;4.20;99.90;;;4.43;79.69;100896.22;5017615;28;21813;-72
2022/04/10 02:26:40;;;;;;;0.20;0.20;;;4.20;99.90;;;4.33;79.54;100902.69;5011570;28;20194;-71
2022/04/10 02:29:07;;;;;;;0.20;0.20;;;4.20;99.90;;;4.35;79.72;100898.28;4999480;28;20267;-73
2022/04/10 02:31:34;;;;;;;0.40;0.40;;;4.10;99.90;;;4.49;79.48;100895.94;4994707;28;20210;-71
2022/04/10 02:34:00;;;;;;;0.20;0.20;;;4.20;99.90;;;4.52;79.01;100893.25;4974019;28;20199;-72
2022/04/10 02:36:27;;;;;;;0.20;0.20;;;4.30;99.90;;;4.65;78.41;100897.00;4984733;28;20233;-71
2022/04/10 02:38:54;;;;;;;0.30;0.30;;;4.50;99.90;;;4.61;78.38;100899.75;5002901;28;20972;-72
2022/04/10 02:41:21;;;;;;;0.20;0.20;;;4.40;99.90;;;4.18;79.71;100898.16;4994015;28;20575;-72
2022/04/10 02:43:48;;;;;;;0.30;0.30;;;4.20;99.90;;;4.42;79.19;100897.13;4993423;28;20293;-72
2022/04/10 02:46:15;;;;;;;0.20;0.20;;;4.20;99.90;;;4.51;78.33;100899.34;5010017;28;20215;-71
2022/04/10 02:48:42;;;;;;;0.20;0.20;;;4.40;99.90;;;4.49;78.21;100903.69;4996528;28;20296;-72
2022/04/10 02:51:09;;;;;;;0.20;0.20;;;4.30;99.90;;;4.46;78.22;100914.19;4973457;28;20199;-73
2022/04/10 02:53:36;;;;;;;0.20;0.20;;;4.30;99.90;;;4.20;80.11;100909.25;4981320;28;20209;-72
2022/04/10 02:56:03;;;;;;;0.20;0.20;;;4.00;99.90;;;4.02;80.73;100920.34;4996718;28;20226;-72
2022/04/10 02:58:30;;;;;;;0.20;0.20;;;3.90;99.90;;;3.93;81.53;100915.56;4976796;28;20214;-72
2022/04/10 03:00:57;;;;;;;0.20;0.20;;;3.80;99.90;;;4.10;80.55;100920.03;5011866;28;20203;-71
2022/04/10 03:03:25;;;;;;;0.20;0.20;;;3.90;99.90;;;4.15;80.47;100924.13;5007262;28;20229;-73
2022/04/10 03:05:52;;;;;;;0.20;0.20;;;3.90;99.90;;;4.26;79.72;100924.50;4983149;28;20203;-72
2022/04/10 03:08:20;;;;;;;0.20;0.20;;;4.00;99.90;;;4.07;80.06;100921.00;4966107;28;20232;-68
2022/04/10 03:10:47;;;;;;;0.20;0.20;;;4.00;99.90;;;3.89;81.25;100922.59;4993248;28;20195;-72
2022/04/10 03:13:16;;;;;;;4.22;1.33;;;3.90;99.90;;;3.70;82.39;100924.22;4988133;28;20195;-71
2022/04/10 03:15:48;;;;;;;0.20;0.20;;;3.70;99.90;;;3.90;81.36;100926.00;4974956;28;20234;-72
2022/04/10 03:18:15;;;;;;;0.20;0.20;;;3.70;99.90;;;3.89;81.37;100929.50;5010649;28;20274;-71
2022/04/10 03:20:42;;;;;;;0.20;0.20;;;3.80;99.90;;;3.76;81.88;100929.13;4973619;28;20210;-73
2022/04/10 03:23:10;;;;;;;0.20;0.20;;;3.60;99.90;;;3.74;81.63;100928.34;4997916;28;20597;-71
2022/04/10 03:25:37;;;;;;;0.20;0.20;;;3.70;99.90;;;3.59;83.32;100930.69;4983876;28;20227;-71
2022/04/10 03:28:04;;;;;;;0.20;0.20;;;3.50;99.90;;;3.56;83.04;100931.63;4999876;28;20253;-71
2022/04/10 03:30:31;;;;;;;0.20;0.20;;;3.50;99.90;;;3.72;82.36;100924.16;5009825;28;20206;-72
2022/04/10 03:32:58;;;;;;;0.20;0.20;;;3.50;99.90;;;3.82;82.16;100928.88;5020657;28;20285;-71
2022/04/10 03:35:25;;;;;;;0.20;0.20;;;3.60;99.90;;;3.94;81.27;100936.13;4993643;28;20207;-72
2022/04/10 03:37:52;;;;;;;0.20;0.20;;;3.70;99.90;;;3.98;80.82;100936.88;5008414;28;20226;-70
2022/04/10 03:40:18;;;;;;;0.20;0.20;;;3.70;99.90;;;4.11;80.30;100947.56;5029367;28;20210;-71
2022/04/10 03:42:48;;;;;;;0.20;0.20;;;3.90;99.90;;;4.06;79.80;100950.31;5021606;28;20341;-71
2022/04/10 03:45:15;;;;;;;0.30;0.30;;;4.00;99.90;;;4.12;80.00;100952.63;4993756;28;20357;-72
2022/04/10 03:47:42;;;;;;;0.20;0.20;;;4.00;99.90;;;4.08;79.56;100958.00;5003540;28;20593;-71
2022/04/10 03:50:09;;;;;;;0.20;0.20;;;4.00;99.90;;;4.07;79.52;100959.72;5010735;28;20209;-71
2022/04/10 03:52:36;;;;;;;0.20;0.20;;;3.90;99.90;;;4.16;79.26;100955.94;4975351;28;20229;-71
2022/04/10 03:55:04;;;;;;;0.20;0.20;;;4.00;99.90;;;4.16;79.36;100967.09;4988292;28;20574;-71
2022/04/10 03:57:31;;;;;;;0.20;0.20;;;4.00;99.90;;;4.08;79.71;100964.00;4989001;28;20227;-71
2022/04/10 03:59:58;;;;;;;0.20;0.20;;;4.00;99.90;;;4.02;79.88;100969.41;4987283;28;20644;-71
2022/04/10 04:02:25;;;;;;;0.20;0.20;;;3.90;99.90;;;4.05;79.54;100974.44;5016457;28;20743;-68
2022/04/10 04:04:52;;;;;;;0.20;0.20;;;3.90;99.90;;;3.77;81.56;100968.66;4997032;28;20256;-71
2022/04/10 04:07:19;;;;;;;0.20;0.20;;;3.70;99.90;;;3.97;80.54;100970.47;4991905;28;20195;-72
2022/04/10 04:09:46;;;;;;;0.20;0.20;;;3.70;99.90;;;4.06;79.82;100978.72;5012332;28;20214;-71
2022/04/10 04:12:13;;;;;;;0.20;0.20;;;3.90;99.90;;;4.06;80.24;100985.59;4973251;28;20211;-72
2022/04/10 04:14:41;;;;;;;0.20;0.20;;;3.90;99.90;;;4.08;80.10;100988.97;4985594;28;20206;-71
2022/04/10 04:17:08;;;;;;;0.35;0.35;;;3.80;99.90;;;4.07;80.56;100987.31;4977177;28;20251;-71
2022/04/10 04:19:35;;;;;;;0.20;0.20;;;3.90;99.90;;;4.15;80.00;100988.69;5022486;28;20292;-71
2022/04/10 04:22:02;;;;;;;0.20;0.20;;;3.90;99.90;;;4.10;80.28;100988.00;4993620;28;20238;-71
2022/04/10 04:24:29;;;;;;;0.20;0.20;;;3.90;99.90;;;4.08;80.66;100989.81;4998900;28;20199;-71
2022/04/10 04:26:56;;;;;;;0.20;0.20;;;3.90;99.90;;;4.06;80.55;100990.78;4994690;28;20704;-71
2022/04/10 04:29:23;;;;;;;0.20;0.20;;;3.80;99.90;;;4.03;80.94;100994.31;4997036;28;20218;-70
2022/04/10 04:31:51;;;;;;;0.20;0.20;;;3.80;99.90;;;4.01;81.37;100995.28;4995074;28;20199;-71
2022/04/10 04:34:20;;;;;;;0.20;0.20;;;3.80;99.90;;;3.98;80.76;100998.00;4994806;28;20300;-71
2022/04/10 04:36:47;;;;;;;0.20;0.20;;;3.80;99.90;;;3.98;80.77;100998.84;5013151;28;20219;-71
2022/04/10 04:39:15;;;;;;;0.20;0.20;;;3.70;99.90;;;4.00;81.36;101007.38;5009561;28;20304;-71
2022/04/10 04:41:46;;;;;;;0.20;0.20;;;3.80;99.90;;;4.00;80.70;101011.69;4988312;28;20199;-71
2022/04/10 04:44:13;;;;;;;0.20;0.20;;;3.80;99.90;;;4.05;80.30;101026.06;4978283;28;20286;-71
2022/04/10 04:46:40;;;;;;;0.20;0.20;;;3.80;99.90;;;4.06;80.19;101017.44;4994102;28;20202;-71
2022/04/10 04:49:07;;;;;;;0.20;0.20;;;3.90;99.90;;;4.06;80.58;101021.75;4994071;28;20287;-72
2022/04/10 04:51:36;;;;;;;0.20;0.20;;;3.80;99.90;;;4.06;80.83;101027.78;5000101;28;20670;-71
2022/04/10 04:54:05;;;;;;;0.20;0.20;;;3.90;99.90;;;4.10;80.55;101033.66;4993861;28;20211;-72
2022/04/10 04:56:31;;;;;;;0.20;0.20;;;3.90;99.90;;;4.17;80.37;101028.19;4995322;28;20567;-68
2022/04/10 04:58:58;;;;;;;0.20;0.20;;;4.00;99.90;;;4.32;79.63;101035.31;5017742;28;20313;-71
2022/04/10 05:01:26;;;;;;;0.20;0.20;;;4.20;99.90;;;4.38;79.25;101040.25;5002492;28;20202;-70
2022/04/10 05:03:53;;;;;;;0.20;0.20;;;4.20;99.90;;;4.49;79.03;101047.59;5012340;28;20210;-71
2022/04/10 05:06:20;;;;;;;0.40;0.40;;;4.30;99.90;;;4.62;78.38;101054.75;5000489;28;20664;-71
2022/04/10 05:08:47;;;;;;;0.20;0.20;;;4.40;99.90;;;4.79;78.23;101042.91;4994942;28;20230;-72
2022/04/10 05:11:14;;;;;;;0.20;0.20;;;4.70;99.90;;;4.98;77.42;101052.41;5010224;28;20655;-71
2022/04/10 05:13:42;;;;;;;0.20;0.20;;;4.90;99.90;;;5.25;76.48;101055.56;4991130;28;20203;-71
2022/04/10 05:16:10;;;;;;;0.20;0.20;;;5.20;99.90;;;5.50;75.77;101063.91;5011884;28;20210;-71
2022/04/10 05:18:37;;;;;;;0.57;0.57;;;5.50;99.90;;;5.75;74.83;101071.44;5005183;28;20215;-72
2022/04/10 05:21:04;;;;;;;0.20;0.20;;;5.80;99.90;;;5.82;73.33;101065.91;5002701;28;20289;-71
2022/04/10 05:23:31;;;;;;;0.20;0.20;;;5.90;99.90;;;5.77;73.35;101074.81;5006857;28;20686;-71
2022/04/10 05:25:58;;;;;;;0.20;0.20;;;5.70;99.90;;;5.55;73.26;101072.34;5012491;28;20203;-71
2022/04/10 05:28:25;;;;;;;0.20;0.20;;;5.60;99.90;;;5.48;74.01;101076.09;4973010;28;20306;-72
2022/04/10 05:30:52;;;;;;;0.20;0.20;;;5.40;99.90;;;5.38;74.98;101092.94;4993490;28;20285;-71
2022/04/10 05:33:20;;;;;;;0.20;0.20;;;5.20;99.90;;;5.32;75.39;101095.78;4999141;28;20207;-71
2022/04/10 05:35:47;;;;;;;0.20;0.20;;;5.10;99.90;;;5.31;75.61;101091.50;4993668;28;20290;-71
2022/04/10 05:38:14;;;;;;;0.20;0.20;;;5.10;99.90;;;5.28;75.93;101097.66;4997529;28;20300;-70
2022/04/10 05:40:41;;;;;;;0.20;0.20;;;5.10;99.90;;;5.34;76.09;101099.16;4974964;28;20199;-73
2022/04/10 05:43:08;;;;;;;0.20;0.20;;;5.10;99.90;;;5.29;75.93;101094.16;4992689;28;20214;-71
2022/04/10 05:45:35;;;;;;;2.60;1.42;;;5.10;99.90;;;5.28;76.11;101107.19;5007628;28;20199;-71
2022/04/10 05:48:02;;;;;;;0.20;0.20;;;5.10;99.90;;;5.29;75.91;101103.66;5015238;28;20232;-70
2022/04/10 05:50:29;;;;;;;0.20;0.20;;;5.20;99.90;;;5.20;76.50;101102.31;5002371;28;20218;-71
2022/04/10 05:52:56;;;;;;;0.20;0.20;;;5.10;99.90;;;5.22;76.34;101117.75;5010717;28;20214;-70
2022/04/10 05:55:24;;;;;;;0.20;0.20;;;5.00;99.90;;;5.19;76.39;101118.75;5004380;28;20226;-71
2022/04/10 05:57:51;;;;;;;0.20;0.20;;;5.00;99.90;;;5.20;76.09;101123.00;4978097;28;20653;-72
2022/04/10 06:00:23;;;;;;;0.20;0.20;;;5.00;99.90;;;5.15;75.90;101126.72;5012897;28;20307;-69
2022/04/10 06:02:51;;;;;;;0.20;0.20;;;5.00;99.90;;;5.16;76.26;101130.97;4992932;28;20195;-71
2022/04/10 06:05:20;;;;;;;0.20;0.20;;;5.00;99.90;;;5.18;76.19;101126.56;4990985;28;20283;-72
2022/04/10 06:07:47;;;;;;;0.20;0.20;;;5.00;99.90;;;5.18;76.36;101130.00;4992761;28;20696;-72
2022/04/10 06:10:14;;;;;;;0.20;0.20;;;5.00;99.90;;;5.19;75.72;101126.53;5038891;23;20599;-68
2022/04/10 06:12:41;;;;;;;0.85;0.85;;;5.10;99.90;;;5.23;75.48;101129.81;4996996;28;20221;-67
2022/04/10 06:15:09;;;;;;;0.20;0.20;;;5.10;99.90;;;5.25;74.90;101128.84;5026016;28;20675;-68
2022/04/10 06:17:36;;;;;;;0.20;0.20;;;5.20;99.90;;;5.32;74.60;101135.41;5031690;28;20221;-68
2022/04/10 06:20:03;;;;;;;0.20;0.20;;;5.20;99.90;;;5.34;75.72;101144.00;4997641;28;20219;-71
2022/04/10 06:22:30;;;;;;;0.20;0.20;;;5.20;99.90;;;5.43;74.59;101146.16;5011287;28;20201;-68
2022/04/10 06:24:57;;;;;;;0.20;0.20;;;5.30;99.90;;;5.46;74.40;101143.47;4993025;28;20282;-68
2022/04/10 06:27:24;;;;;;;0.20;0.20;;;5.30;99.90;;;5.46;74.52;101146.03;4993711;28;20211;-68
2022/04/10 06:29:51;;;;;;;0.20;0.20;;;5.30;99.90;;;5.53;74.44;101144.03;5006121;28;20229;-68
2022/04/10 06:32:18;;;;;;;0.20;0.20;;;5.40;99.90;;;5.58;74.03;101154.19;5004956;28;20575;-69
2022/04/10 06:34:45;;;;;;;0.20;0.20;;;5.40;99.90;;;5.60;73.86;101150.59;4992802;28;20210;-68
2022/04/10 06:37:12;;;;;;;0.20;0.20;;;5.50;99.90;;;5.63;74.04;101145.31;4993069;28;20227;-68
2022/04/10 06:39:40;;;;;;;0.20;0.20;;;5.50;99.90;;;5.68;73.86;101153.72;4976386;28;20479;-68
2022/04/10 06:42:08;;;;;;;0.20;0.20;;;5.60;99.90;;;5.70;74.28;101151.91;5010649;28;20198;-69
2022/04/10 06:44:37;;;;;;;0.20;0.20;;;5.60;99.90;;;5.66;74.66;101152.97;4994315;28;20195;-68
2022/04/10 06:47:04;;;;;;;0.20;0.20;;;5.60;99.90;;;5.71;74.63;101148.41;5010852;28;20210;-69
2022/04/10 06:49:31;;;;;;;0.20;0.20;;;5.60;99.90;;;5.63;75.10;101145.31;5001236;28;20670;-69
2022/04/10 06:51:58;;;;;;;0.20;0.20;;;5.50;99.90;;;5.76;74.65;101141.28;4982132;28;20673;-68
2022/04/10 06:54:25;;;;;;;0.40;0.40;;;5.60;99.90;;;5.85;74.88;101148.69;5001792;28;20206;-67
2022/04/10 06:56:52;;;;;;;0.45;0.45;;;5.70;99.90;;;5.94;74.30;101158.63;5008565;28;20313;-68
2022/04/10 06:59:19;;;;;;;0.20;0.20;;;5.80;99.90;;;6.06;74.23;101163.28;4975922;28;20349;-69
2022/04/10 07:01:45;;;;;;;0.30;0.30;;;6.00;99.90;;;6.21;73.23;101164.31;5000604;28;20210;-68
2022/04/10 07:04:13;;;;;;;0.20;0.20;;;6.10;99.90;;;6.31;72.35;101165.56;5008476;28;20672;-69
2022/04/10 07:06:46;;;;;;;0.20;0.20;;;6.20;99.90;;;6.40;72.07;101172.94;5005884;28;20293;-69
2022/04/10 07:09:16;;;;;;;0.20;0.20;;;6.30;99.90;;;6.54;72.61;101180.09;4987735;28;20313;-68
2022/04/10 07:11:44;;;;;;;0.20;0.20;;;6.40;99.90;;;6.69;73.01;101185.38;5001652;28;20318;-68
2022/04/10 07:14:11;;;;;;;0.20;0.20;;;6.60;99.90;;;6.89;72.58;101184.44;4980111;28;20233;-69
2022/04/10 07:16:38;;;;;;;0.20;0.20;;;6.80;99.90;;;7.02;70.81;101191.56;5007453;28;20203;-68
2022/04/10 07:19:06;;;;;;;0.20;0.20;;;7.00;99.90;;;7.14;69.75;101191.84;5001067;28;20665;-68
2022/04/10 07:24:18;;;;;;;0.20;0.20;;;7.10;99.90;;;7.13;68.87;101204.03;5009569;28;21214;-69
2022/04/10 07:26:45;;;;;;;0.20;0.20;;;7.00;99.90;;;7.11;70.03;101205.00;4975659;28;20649;-68
2022/04/10 07:29:12;;;;;;;0.20;0.20;;;7.00;99.90;;;7.06;70.40;101202.63;5009450;28;21226;-69
2022/04/10 07:31:40;;;;;;;0.20;0.20;;;6.90;99.90;;;7.01;70.86;101205.44;4991736;28;20668;-68
2022/04/10 07:34:07;;;;;;;0.20;0.20;;;6.90;99.90;;;6.89;71.60;101215.56;4989716;28;20625;-69
2022/04/10 07:36:34;;;;;;;0.20;0.20;;;6.80;99.90;;;6.74;71.89;101211.94;4977001;28;20613;-69
2022/04/10 07:39:01;;;;;;;0.20;0.20;;;6.70;99.90;;;6.62;71.79;101216.88;4959656;28;20677;-69
2022/04/10 07:41:28;;;;;;;0.20;0.20;;;6.60;99.90;;;6.52;72.48;101215.59;4974505;28;21035;-69
2022/04/10 07:43:55;;;;;;;0.20;0.20;;;6.40;99.90;;;6.47;72.80;101230.53;4956602;28;20669;-69
2022/04/10 07:49:08;;;;;;;0.30;0.30;;;6.20;99.90;;;5.89;77.91;101227.94;4997635;28;20685;-69
2022/04/10 07:51:35;;;;;;;0.20;0.20;;;6.00;99.90;;;5.82;78.40;101233.38;4994137;28;20671;-69
2022/04/10 07:54:02;;;;;;;0.20;0.20;;;5.80;99.90;;;5.64;79.72;101232.44;5003950;28;20658;-69
2022/04/10 07:56:29;;;;;;;0.20;0.20;;;5.60;99.90;;;5.68;79.96;101235.72;4995136;28;20208;-69
2022/04/10 07:58:56;;;;;;;0.20;0.20;;;5.50;99.90;;;5.70;80.33;101234.78;4996218;28;20229;-69
2022/04/10 08:01:24;;;;;;;0.30;0.30;;;5.50;99.90;;;5.66;80.96;101228.03;4995002;28;20237;-69
2022/04/10 08:03:52;;;;;;;1.15;0.95;;;5.50;99.90;;;5.75;80.16;101237.97;4993340;28;20261;-69
2022/04/10 08:06:19;;;;;;;0.20;0.20;;;5.60;99.90;;;5.77;79.96;101236.16;5012491;28;20723;-68
2022/04/10 08:08:47;;;;;;;0.20;0.20;;;5.70;99.90;;;5.86;79.29;101241.00;4995890;28;20604;-68
2022/04/10 08:11:13;;;;;;;0.20;0.20;;;5.70;99.90;;;5.81;81.34;101242.09;4996173;28;20558;-68
2022/04/10 08:13:40;;;;;;;0.20;0.20;;;5.70;99.90;;;6.01;79.97;101248.09;4995459;28;20202;-68
2022/04/10 08:16:07;;;;;;;0.20;0.20;;;5.90;99.90;;;6.10;79.03;101252.91;5012134;28;20242;-68
2022/04/10 08:18:35;;;;;;;0.20;0.20;;;6.10;99.90;;;6.00;78.89;101243.84;5011821;28;20231;-68
2022/04/10 08:21:02;;;;;;;0.20;0.20;;;6.10;99.90;;;6.20;78.62;101251.56;4995950;28;20199;-68
2022/04/10 08:23:28;;;;;;;0.22;0.22;;;6.20;99.90;;;6.38;78.96;101259.44;4976310;28;20287;-68
2022/04/10 08:25:55;;;;;;;0.30;0.30;;;6.40;99.90;;;6.35;78.80;101264.75;4976139;28;20218;-68
2022/04/10 08:28:22;;;;;;;0.20;0.20;;;6.50;99.90;;;6.54;78.44;101260.47;4995300;28;20289;-69
2022/04/10 08:30:49;;;;;;;0.30;0.30;;;6.60;99.90;;;6.62;77.97;101266.94;5013235;28;20241;-68
2022/04/10 08:33:17;;;;;;;0.20;0.20;;;6.60;99.90;;;6.57;77.74;101261.16;4995378;28;20261;-69
2022/04/10 08:35:44;;;;;;;0.20;0.20;;;6.60;99.90;;;6.35;77.92;101250.06;5010288;28;20716;-68
2022/04/10 08:38:11;;;;;;;0.20;0.20;;;6.40;99.90;;;6.26;78.97;101260.84;4995437;28;20692;-67
2022/04/10 08:40:40;;;;;;;0.20;0.20;;;6.40;99.90;;;6.31;78.49;101253.69;5011523;28;20653;-68
2022/04/10 08:43:08;;;;;;;0.20;0.20;;;6.40;99.90;;;6.49;79.12;101252.03;4995593;28;20202;-68
2022/04/10 08:45:37;;;;;;;0.20;0.20;;;6.50;99.90;;;6.63;79.80;101257.44;4969010;28;20281;-69
2022/04/10 08:48:05;;;;;;;0.20;0.20;;;6.60;99.90;;;6.81;79.33;101259.19;4995470;28;20221;-69
2022/04/10 08:50:33;;;;;;;0.20;0.20;;;6.90;99.90;;;7.01;78.41;101259.06;5011876;28;20222;-68
2022/04/10 08:53:02;;;;;;;0.40;0.40;;;7.10;99.90;;;6.89;78.26;101273.47;5000859;28;20208;-68
2022/04/10 08:55:29;;;;;;;0.20;0.20;;;7.10;99.90;;;6.77;77.95;101271.44;4989863;28;20639;-68
2022/04/10 08:57:56;;;;;;;0.20;0.20;;;7.00;99.90;;;6.54;78.46;101271.66;4994346;28;20245;-68
2022/04/10 09:00:23;;;;;;;0.20;0.20;;;6.70;99.90;;;6.50;78.79;101264.91;5011728;28;20608;-69
2022/04/10 09:02:52;;;;;;;0.20;0.20;;;6.60;99.90;;;6.51;79.52;101264.03;4995272;28;21208;-68
2022/04/10 09:05:25;;;;;;;0.20;0.20;;;6.50;99.90;;;6.60;79.80;101266.19;4994214;28;20226;-68
2022/04/10 09:08:11;;;;;;;0.20;0.20;;;6.60;99.90;;;6.74;79.16;101262.97;5008330;28;20691;-68
2022/04/10 09:10:59;;;;;;;0.20;0.20;;;6.70;99.90;;;6.84;79.16;101264.22;4979184;28;20237;-68
2022/04/10 09:13:38;;;;;;;0.20;0.20;;;6.90;99.90;;;7.42;75.58;101260.53;4990294;28;20211;-68
2022/04/10 09:16:21;;;;;;;0.20;0.20;;;7.70;99.90;;;7.97;71.79;101273.34;5001726;28;20618;-69
2022/04/10 09:19:06;;;;;;;0.20;0.20;;;8.30;99.90;;;8.42;69.25;101264.06;5006701;28;20664;-69
2022/04/10 09:21:43;;;;;;;0.20;0.20;;;8.80;99.90;;;9.17;67.20;101273.81;4996178;28;20632;-69
2022/04/10 09:24:12;;;;;;;0.20;0.20;;;9.70;99.90;;;9.69;64.84;101275.13;4993056;28;20628;-69
2022/04/10 09:26:57;;;;;;;0.20;0.20;;;10.50;99.90;;;9.73;64.97;101275.78;4978213;28;20736;-70
2022/04/10 09:29:25;;;;;;;0.20;0.20;;;10.40;99.90;;;9.96;64.59;101275.28;5010704;28;21229;-69
2022/04/10 09:31:57;;;;;;;0.20;0.20;;;10.60;99.90;;;9.87;65.14;101281.88;4994580;28;20632;-69
2022/04/10 09:34:28;;;;;;;0.20;0.20;;;10.50;99.90;;;10.51;63.93;101275.44;5010868;28;21256;-69
2022/04/10 09:37:15;;;;;;;0.20;0.20;;;11.20;99.90;;;10.45;63.21;101278.41;5011650;28;20636;-69
2022/04/10 09:39:46;;;;;;;0.30;0.30;;;11.50;99.90;;;11.27;61.88;101277.50;4993829;28;21306;-70
2022/04/10 09:42:14;;;;;;;0.30;0.30;;;12.10;99.90;;;12.27;59.00;101284.72;4988713;28;25048;-69
2022/04/10 09:45:01;;;;;;;0.30;0.20;;;13.30;99.90;;;12.16;56.30;101283.78;4983664;28;20194;-69
2022/04/10 09:47:28;;;;;;;0.30;0.30;;;13.60;98.90;;;11.66;56.62;101271.44;5011419;28;20630;-68
2022/04/10 09:50:05;;;;;;;0.30;0.20;;;12.60;99.30;;;11.10;58.93;101274.28;5010742;28;20756;-69
2022/04/10 09:52:37;;;;;;;0.30;0.20;;;11.70;99.90;;;10.53;61.74;101282.25;4993643;28;20636;-69
2022/04/10 09:55:08;;;;;;;0.20;0.20;;;11.00;99.90;;;9.53;63.63;101279.53;4979181;28;20917;-68
2022/04/10 09:57:35;;;;;;;0.20;0.20;;;10.40;99.90;;;9.29;66.68;101279.16;4962923;28;20634;-69
2022/04/10 10:00:06;;;;;;;0.20;0.20;;;9.80;99.90;;;8.77;68.84;101279.53;5009497;28;20652;-69
2022/04/10 10:02:33;;;;;;;0.20;0.20;;;9.50;99.90;;;9.24;67.42;101270.75;5011986;28;20621;-69
2022/04/10 10:05:00;;;;;;;0.20;0.20;;;9.60;99.90;;;9.23;65.72;101263.91;4997999;28;20629;-69
2022/04/10 10:07:28;;;;;;;0.20;0.20;;;9.60;99.90;;;9.54;65.96;101277.78;4974867;28;20717;-69
2022/04/10 10:09:58;;;;;;;0.80;0.80;;;9.90;99.90;;;10.29;64.97;101269.84;4990686;28;20758;-69
2022/04/10 10:12:27;;;;;;;0.20;0.20;;;10.80;99.90;;;10.98;60.63;101277.69;4993688;28;21189;-69
2022/04/10 10:14:56;;;;;;;0.20;0.20;;;11.90;99.90;;;10.76;61.11;101276.44;4992307;28;20732;-69
2022/04/10 10:17:24;;;;;;;0.20;0.20;;;12.30;99.90;;;11.18;59.41;101264.22;4978604;28;20616;-69
2022/04/10 10:19:53;;;;;;;2.10;2.00;;;12.00;99.90;;;11.60;57.91;101250.94;4992409;28;20680;-69
2022/04/10 10:22:20;;;;;;;0.20;0.20;;;12.30;99.90;;;11.82;59.28;101255.63;4993809;28;21215;-69
2022/04/10 10:24:57;;;;;;;0.77;0.77;;;12.60;99.90;;;13.80;55.11;101271.81;5010046;28;20640;-69
2022/04/10 10:28:15;;;;;;;0.30;0.27;;;15.30;99.90;;;15.63;47.81;101262.47;4992955;28;21197;-70
2022/04/10 10:31:19;;;;;;;0.30;0.30;;;18.20;86.10;;;16.93;44.82;101259.94;5011020;28;20651;-69
2022/04/10 10:33:57;;;;;;;3.03;1.60;;;20.00;69.70;;;14.88;47.15;101250.31;5006647;28;20652;-70
2022/04/10 10:36:27;;;;;;;0.63;0.63;;;17.20;70.90;;;14.29;48.20;101279.47;4973528;28;20729;-69